ADDS METAR Data INFO
IDs: Format: Raw Decoded Include TAF

Data at: 1506 UTC 21 Feb 2018

K24J 211435Z AUTO 12009KT 10SM SCT017 BKN023 24/21 A3044 RMK A01
K24J 211415Z AUTO 12005KT 10SM CLR 24/22 A3043 RMK A01
K24J 211355Z AUTO 11004KT 10SM CLR 23/22 A3043 RMK A01
K24J 211335Z AUTO 10003KT 10SM CLR 21/21 A3042 RMK A01
K24J 211315Z AUTO 09003KT 9SM CLR 21/21 A3042 RMK A01
K24J 211255Z AUTO 00000KT 2 1/2SM BR CLR 20/20 A3041 RMK A01
K24J 201515Z AUTO 12007KT 10SM BKN022 25/20 A3038 RMK A01
K24J 201455Z AUTO 12007KT 090V150 10SM SCT018 25/20 A3038 RMK A01
K24J 201435Z AUTO 11009KT 10SM SCT016 24/20 A3038 RMK A01
K24J 201415Z AUTO 13006KT 10SM CLR 23/21 A3038 RMK A01
K24J 201355Z AUTO 10006KT 10SM CLR 22/21 A3037 RMK A01
K24J 201335Z AUTO 11005KT 10SM FEW010 21/21 A3037 RMK A01
K24J 201315Z AUTO 00000KT 10SM FEW008 20/20 A3037 RMK A01
K24J 201255Z AUTO 09004KT 9SM CLR 19/19 A3036 RMK A01
K24J 201235Z AUTO 00000KT 5SM BR FEW004 FEW010 19/19 A3036 RMK A01
K24J 201215Z AUTO 00000KT 4SM BR FEW006 FEW010 SCT019 19/19 A3035 RMK A01
K24J 201155Z AUTO 09003KT 7SM FEW006 BKN018 BKN033 19/19 A3035 RMK A01
K24J 201135Z AUTO 00000KT 8SM FEW006 BKN018 BKN024 19/19 A3034 RMK A01
K24J 201115Z AUTO 00000KT 10SM SCT019 SCT024 19/19 A3034 RMK A01
K24J 201055Z AUTO 10003KT 10SM FEW020 20/20 A3033 RMK A01
K24J 201035Z AUTO 00000KT 10SM CLR 20/20 A3033 RMK A01
K24J 201015Z AUTO 10004KT 10SM FEW055 20/20 A3032 RMK A01
K24J 200955Z AUTO 10004KT 10SM FEW050 FEW060 20/20 A3032 RMK A01
K24J 200935Z AUTO 10004KT 10SM BKN050 20/20 A3032 RMK A01
K24J 200915Z AUTO 11006KT 10SM BKN050 BKN060 20/20 A3031 RMK A01
K24J 200855Z AUTO 11004KT 10SM FEW041 SCT050 BKN055 20/20 A3031 RMK A01
K24J 200835Z AUTO 11005KT 10SM FEW041 SCT050 BKN060 20/20 A3031 RMK A01
K24J 200815Z AUTO 11005KT 10SM FEW040 SCT048 BKN055 20/20 A3031 RMK A01
K24J 200755Z AUTO 11004KT 10SM SCT017 BKN022 BKN036 20/20 A3031 RMK A01
K24J 200735Z AUTO 11004KT 10SM BKN017 OVC035 20/20 A3031 RMK A01
K24J 200715Z AUTO 11004KT 10SM SCT018 BKN028 OVC047 20/20 A3032 RMK A01
K24J 200655Z AUTO 10004KT 10SM SCT030 SCT040 BKN046 20/20 A3032 RMK A01
K24J 200635Z AUTO 10004KT 10SM CLR 20/20 A3032 RMK A01
K24J 200615Z AUTO 00000KT 10SM FEW044 FEW055 20/20 A3032 RMK A01
K24J 200555Z AUTO 10006KT 10SM CLR 20/19 A3032 RMK A01
K24J 200535Z AUTO VRB04KT 10SM CLR 20/19 A3032 RMK A01
K24J 200515Z AUTO 10004KT 10SM CLR 21/19 A3032 RMK A01
K24J 200455Z AUTO 10005G10KT 10SM CLR 21/19 A3032 RMK A01
K24J 200435Z AUTO 10006KT 10SM CLR 21/18 A3032 RMK A01
K24J 200415Z AUTO 10005KT 10SM CLR 21/18 A3032 RMK A01
K24J 200355Z AUTO 11005KT 10SM CLR 21/18 A3032 RMK A01
K24J 200335Z AUTO 09005KT 10SM FEW055 21/17 A3031 RMK A01
K24J 200315Z AUTO 09005KT 10SM FEW049 BKN055 22/17 A3031 RMK A01